Terminal Aerodrome Forecast
Issued by NWS Portland, ME

Home | Current Version | Previous Version | Text Only | Print | Product List | Glossary On
Versions: 1 2 3 4 5 6 7 8 9 10 11 12 13 14 15 16 17 18 19 20 21
000
FTUS41 KGYX 020138 AAA
TAFCON
TAF AMD
KCON 020138Z 0202/0224 03007KT 6SM BR OVC015
     FM021200 02003KT 4SM BR OVC007
     FM021400 03003KT P6SM BKN120=

USA.gov is the U.S. government's official web portal to all federal, state and local government web resources and services.